Jaboticabal, Brazil
Current Conditions -  °F | °C
As of 10:00 PM on Sunday 23 Nov 2014 (Local Time) from SBRP Reporting Station
Light Rain Light Rain  
Wind Chill: 72°   Ceiling: Unl
Heat Index: 72°   Visibility: 6mi
Dew Point: 68°   Wind: 5mph
Humidity: 88%   Direction: 330°NNW
Pressure: 29.94"   Gusts: NA
Location:  21.25°S, 48.33°W
Report Text: SBRP 240000Z 33004KT 9999 -RA FEW040 FEW045TCU 22/20 Q1014 RETS
Loading
Personal Weather Stations






























Interactive Weather Map New forecast layout! Learn more

10-Day Weather Forecast

Advertisements
Track Severe Weather on mobile